createdAt,value
2022-11-12T00:00:59.216Z,2.10
2022-11-12T00:03:27.475Z,2.67
2022-11-12T00:05:55.648Z,2.70
2022-11-12T00:08:24.332Z,2.23
2022-11-12T00:10:52.669Z,2.00
2022-11-12T00:13:22.149Z,2.47
2022-11-12T00:15:50.274Z,2.17
2022-11-12T00:18:18.347Z,2.80
2022-11-12T00:20:46.445Z,2.57
2022-11-12T00:23:14.580Z,3.07
2022-11-12T00:25:42.704Z,2.30
2022-11-12T00:28:11.334Z,2.10
2022-11-12T00:30:41.396Z,2.37
2022-11-12T00:33:09.595Z,2.10
2022-11-12T00:35:37.729Z,2.20
2022-11-12T00:38:05.824Z,2.70
2022-11-12T00:40:33.935Z,2.60
2022-11-12T00:43:02.103Z,2.60
2022-11-12T00:45:30.273Z,2.60
2022-11-12T00:47:59.800Z,4.53
2022-11-12T00:50:27.933Z,2.67
2022-11-12T00:52:56.042Z,2.70
2022-11-12T00:55:24.151Z,2.30
2022-11-12T00:57:52.277Z,2.27
2022-11-12T01:00:20.785Z,2.27
2022-11-12T01:02:51.265Z,2.50
2022-11-12T01:05:21.251Z,2.60
2022-11-12T01:07:53.289Z,2.50
2022-11-12T01:10:24.029Z,2.30
2022-11-12T01:12:52.148Z,2.97
2022-11-12T01:15:20.409Z,3.00
2022-11-12T01:17:48.562Z,2.33
2022-11-12T01:20:16.990Z,2.20
2022-11-12T01:22:46.533Z,2.17
2022-11-12T01:25:14.645Z,2.67
2022-11-12T01:27:42.732Z,2.50
2022-11-12T01:30:12.089Z,2.50
2022-11-12T01:32:40.131Z,2.53
2022-11-12T01:35:08.622Z,2.30
2022-11-12T01:37:36.732Z,1.93
2022-11-12T01:40:07.463Z,2.70
2022-11-12T01:42:35.588Z,2.40
2022-11-12T01:45:03.774Z,2.37
2022-11-12T01:47:33.117Z,3.43
2022-11-12T01:50:02.335Z,2.10
2022-11-12T01:52:31.432Z,3.07
2022-11-12T01:55:01.716Z,3.37
2022-11-12T01:57:35.020Z,2.60
2022-11-12T02:00:05.813Z,2.97
2022-11-12T02:02:33.997Z,2.53
2022-11-12T02:05:02.302Z,4.50
2022-11-12T02:07:30.449Z,4.20
2022-11-12T02:09:58.617Z,1.93
2022-11-12T02:12:44.013Z,4.17
2022-11-12T02:15:13.599Z,2.47
2022-11-12T02:17:47.493Z,3.20
2022-11-12T02:20:15.919Z,2.70
2022-11-12T02:22:45.394Z,2.73
2022-11-12T02:25:13.662Z,3.23
2022-11-12T02:27:41.754Z,2.60
2022-11-12T02:30:10.443Z,2.40
2022-11-12T02:32:38.561Z,3.40
2022-11-12T02:35:12.829Z,3.10
2022-11-12T02:37:40.949Z,2.63
2022-11-12T02:40:11.652Z,3.00
2022-11-12T02:42:39.724Z,3.20
2022-11-12T02:45:08.560Z,3.23
2022-11-12T02:47:36.666Z,2.10
2022-11-12T02:50:04.959Z,3.03
2022-11-12T02:52:33.533Z,3.20
2022-11-12T02:55:01.661Z,2.87
2022-11-12T02:57:31.189Z,2.70
2022-11-12T02:59:59.304Z,2.90
2022-11-12T03:02:27.392Z,3.33
2022-11-12T03:04:55.507Z,2.43
2022-11-12T03:07:26.256Z,2.40
2022-11-12T03:09:54.355Z,2.70
2022-11-12T03:12:22.398Z,2.50
2022-11-12T03:14:51.906Z,2.70
2022-11-12T03:17:20.009Z,2.40
2022-11-12T03:19:48.062Z,3.00
2022-11-12T03:22:16.175Z,2.60
2022-11-12T03:24:44.289Z,2.77
2022-11-12T03:27:12.395Z,2.70
2022-11-12T03:29:40.480Z,3.07
2022-11-12T03:32:09.938Z,3.07
2022-11-12T03:34:38.069Z,2.60
2022-11-12T03:37:09.520Z,4.90
2022-11-12T03:39:40.926Z,3.07
2022-11-12T03:42:09.055Z,2.53
2022-11-12T03:44:37.180Z,2.83
2022-11-12T03:47:05.330Z,3.30
2022-11-12T03:49:34.794Z,2.50
2022-11-12T03:52:03.061Z,2.50
2022-11-12T03:54:31.169Z,2.77
2022-11-12T03:56:59.310Z,2.83
2022-11-12T03:59:27.426Z,2.60
2022-11-12T04:01:55.549Z,2.50
2022-11-12T04:04:23.676Z,4.93
2022-11-12T04:07:10.632Z,2.67
2022-11-12T04:09:38.785Z,2.50
2022-11-12T04:12:23.784Z,2.50
2022-11-12T04:14:51.884Z,3.07
2022-11-12T04:17:37.305Z,3.77
2022-11-12T04:20:23.712Z,2.40
2022-11-12T04:22:53.193Z,2.50
2022-11-12T04:25:38.940Z,2.73
2022-11-12T04:28:07.032Z,2.97
2022-11-12T04:30:34.126Z,2.10
2022-11-12T04:33:02.240Z,2.60
2022-11-12T04:35:30.353Z,2.53
2022-11-12T04:37:59.870Z,2.30
2022-11-12T04:40:45.944Z,2.40
2022-11-12T04:43:32.797Z,2.30
2022-11-12T04:46:09.861Z,2.20
2022-11-12T04:48:38.080Z,2.47
2022-11-12T04:51:27.640Z,2.10
2022-11-12T04:53:57.503Z,3.87
2022-11-12T04:56:25.591Z,2.57
2022-11-12T04:58:53.720Z,2.50
2022-11-12T05:01:22.149Z,2.70
2022-11-12T05:03:50.248Z,2.40
2022-11-12T05:06:35.926Z,2.47
2022-11-12T05:09:05.469Z,2.80
2022-11-12T05:11:33.615Z,2.43
2022-11-12T05:14:01.799Z,2.20
2022-11-12T05:16:29.964Z,2.50
2022-11-12T05:18:58.059Z,2.23
2022-11-12T05:21:43.840Z,3.13
2022-11-12T05:24:27.723Z,2.30
2022-11-12T05:27:01.459Z,2.83
2022-11-12T05:29:29.620Z,2.03
2022-11-12T05:31:57.792Z,2.30
2022-11-12T05:34:36.564Z,2.30
2022-11-12T05:37:05.342Z,2.47
2022-11-12T05:39:34.876Z,2.53
2022-11-12T05:42:18.118Z,2.63
2022-11-12T05:44:46.228Z,3.50
2022-11-12T05:47:14.401Z,2.47
2022-11-12T05:49:42.466Z,2.27
2022-11-12T05:52:10.548Z,4.07
2022-11-12T05:54:40.026Z,2.40
2022-11-12T05:57:08.149Z,2.23
2022-11-12T05:59:36.235Z,2.43
2022-11-12T06:02:04.449Z,2.30
2022-11-12T06:04:32.595Z,2.77
2022-11-12T06:07:03.426Z,2.50
2022-11-12T06:09:31.565Z,3.23
2022-11-12T06:12:02.481Z,2.37
2022-11-12T06:14:30.635Z,2.50
2022-11-12T06:16:58.732Z,2.30
2022-11-12T06:19:26.845Z,2.83
2022-11-12T06:21:54.972Z,2.83
2022-11-12T06:24:23.168Z,2.50
2022-11-12T06:26:51.271Z,2.43
2022-11-12T06:29:20.794Z,5.20
2022-11-12T06:31:48.912Z,3.00
2022-11-12T06:34:17.085Z,2.20
2022-11-12T06:36:45.162Z,1.90
2022-11-12T06:39:13.419Z,2.23
2022-11-12T06:41:41.489Z,2.20
2022-11-12T06:44:09.583Z,2.27
2022-11-12T06:46:39.123Z,2.10
2022-11-12T06:49:07.258Z,2.80
2022-11-12T06:51:35.879Z,1.90
2022-11-12T06:54:04.037Z,2.40
2022-11-12T06:56:32.166Z,2.73
2022-11-12T06:59:00.364Z,2.47
2022-11-12T07:01:28.478Z,4.40
2022-11-12T07:03:57.976Z,2.07
2022-11-12T07:06:26.062Z,2.60
2022-11-12T07:08:54.220Z,1.90
2022-11-12T07:11:22.454Z,2.20
2022-11-12T07:13:50.659Z,2.23
2022-11-12T07:16:18.899Z,2.70
2022-11-12T07:18:47.539Z,2.70
2022-11-12T07:21:17.864Z,2.20
2022-11-12T07:23:46.050Z,2.10
2022-11-12T07:26:15.730Z,2.20
2022-11-12T07:28:43.867Z,2.33
2022-11-12T07:31:12.891Z,3.20
2022-11-12T07:33:41.156Z,2.37
2022-11-12T07:36:10.417Z,2.90
2022-11-12T07:38:40.653Z,5.43
2022-11-12T07:41:09.646Z,2.17
2022-11-12T07:43:38.087Z,2.37
2022-11-12T07:46:10.564Z,2.50
2022-11-12T07:48:39.694Z,2.63
2022-11-12T07:51:08.581Z,2.17
2022-11-12T07:53:36.694Z,3.37
2022-11-12T07:56:06.616Z,2.70
2022-11-12T07:58:35.222Z,2.30
2022-11-12T08:01:08.923Z,2.97
2022-11-12T08:03:37.102Z,2.30
2022-11-12T08:06:05.764Z,2.07
2022-11-12T08:08:33.903Z,2.07
2022-11-12T08:11:02.000Z,2.27
2022-11-12T08:13:31.486Z,4.00
2022-11-12T08:15:59.825Z,2.40
2022-11-12T08:18:28.852Z,2.83
2022-11-12T08:21:01.141Z,3.13
2022-11-12T08:23:29.267Z,2.37
2022-11-12T08:26:00.024Z,1.97
2022-11-12T08:28:29.393Z,2.40
2022-11-12T08:30:59.216Z,2.10
2022-11-12T08:33:27.303Z,2.20
2022-11-12T08:35:55.440Z,2.30
2022-11-12T08:38:23.670Z,2.73
2022-11-12T08:40:51.834Z,1.80
2022-11-12T08:43:19.926Z,5.80
2022-11-12T08:45:48.734Z,2.40
2022-11-12T08:48:18.210Z,2.40
2022-11-12T08:50:46.293Z,2.60
2022-11-12T08:53:14.918Z,2.37
2022-11-12T08:55:43.051Z,2.50
2022-11-12T08:58:11.343Z,2.07
2022-11-12T09:00:40.976Z,2.20
2022-11-12T09:03:09.698Z,2.33
2022-11-12T09:05:39.259Z,2.10
2022-11-12T09:08:08.505Z,1.87
2022-11-12T09:10:36.750Z,2.40
2022-11-12T09:13:05.016Z,2.30
2022-11-12T09:15:37.952Z,2.13
2022-11-12T09:18:07.633Z,2.63
2022-11-12T09:20:35.815Z,2.70
2022-11-12T09:23:08.293Z,2.23
2022-11-12T09:25:36.638Z,2.00
2022-11-12T09:28:09.473Z,1.90
2022-11-12T09:30:37.977Z,1.97
2022-11-12T09:33:06.144Z,2.37
2022-11-12T09:35:34.323Z,2.20
2022-11-12T09:38:02.423Z,2.20
2022-11-12T09:40:43.682Z,1.80
2022-11-12T09:43:14.001Z,2.17
2022-11-12T09:45:50.317Z,1.83
2022-11-12T09:48:30.469Z,3.53
2022-11-12T09:51:00.010Z,2.50
2022-11-12T09:53:32.835Z,1.90
2022-11-12T09:56:02.387Z,2.17
2022-11-12T09:58:30.500Z,1.97
2022-11-12T10:01:00.223Z,2.10
2022-11-12T10:03:33.868Z,2.10
2022-11-12T10:06:06.021Z,2.00
2022-11-12T10:08:41.614Z,2.20
2022-11-12T10:11:21.804Z,1.90
2022-11-12T10:13:59.730Z,1.63
2022-11-12T10:16:45.505Z,4.43
2022-11-12T10:19:23.884Z,2.00
2022-11-12T10:21:54.536Z,1.90
2022-11-12T10:24:24.161Z,2.27
2022-11-12T10:26:53.694Z,2.37
2022-11-12T10:29:28.272Z,2.20
2022-11-12T10:31:56.407Z,1.73
2022-11-12T10:34:25.447Z,2.20
2022-11-12T10:36:55.661Z,1.70
2022-11-12T10:39:33.900Z,2.13
2022-11-12T10:42:08.115Z,3.00
2022-11-12T10:44:36.276Z,1.70
2022-11-12T10:47:34.399Z,1.97
2022-11-12T10:50:20.751Z,2.27
2022-11-12T10:52:56.320Z,2.47
2022-11-12T10:55:25.174Z,3.70
2022-11-12T10:58:07.114Z,2.90
2022-11-12T11:00:35.252Z,2.30
2022-11-12T11:03:04.415Z,1.90
2022-11-12T11:05:34.555Z,2.33
2022-11-12T11:08:02.980Z,2.47
2022-11-12T11:10:32.167Z,2.47
2022-11-12T11:13:21.069Z,2.30
2022-11-12T11:16:04.945Z,2.07
2022-11-12T11:18:35.223Z,3.00
2022-11-12T11:21:08.588Z,2.20
2022-11-12T11:23:39.334Z,3.40
2022-11-12T11:26:18.049Z,2.57
2022-11-12T11:28:48.902Z,2.13
2022-11-12T11:31:20.536Z,2.97
2022-11-12T11:33:49.703Z,3.00
2022-11-12T11:36:21.188Z,3.27
2022-11-12T11:38:56.056Z,2.00
2022-11-12T11:41:45.894Z,2.30
2022-11-12T11:44:22.200Z,2.30
2022-11-12T11:46:59.313Z,2.70
2022-11-12T11:49:48.349Z,2.47
2022-11-12T11:52:53.739Z,2.50
2022-11-12T11:55:36.827Z,2.23
2022-11-12T11:58:10.577Z,1.90
2022-11-12T12:00:46.536Z,3.43
2022-11-12T12:03:19.304Z,3.53
2022-11-12T12:05:58.145Z,2.67
2022-11-12T12:08:35.133Z,1.90
2022-11-12T12:11:08.934Z,2.70
2022-11-12T12:13:43.924Z,3.93
2022-11-12T12:16:27.477Z,2.20
2022-11-12T12:18:58.780Z,1.93
2022-11-12T12:21:27.393Z,2.53
2022-11-12T12:23:57.542Z,2.30
2022-11-12T12:26:28.496Z,8.37
2022-11-12T12:28:58.349Z,2.63
2022-11-12T12:31:30.778Z,3.30
2022-11-12T12:34:02.653Z,2.73
2022-11-12T12:36:32.923Z,2.40
2022-11-12T12:39:10.021Z,2.77
2022-11-12T12:41:42.198Z,3.10
2022-11-12T12:44:10.603Z,2.93
2022-11-12T12:46:41.743Z,3.60
2022-11-12T12:49:09.869Z,2.50
2022-11-12T12:51:38.011Z,2.33
2022-11-12T12:54:06.312Z,2.90
2022-11-12T12:56:55.164Z,2.43
2022-11-12T12:59:24.238Z,3.57
2022-11-12T13:01:58.787Z,2.83
2022-11-12T13:04:51.780Z,2.83
2022-11-12T13:07:21.076Z,2.37
2022-11-12T13:09:49.204Z,3.17
2022-11-12T13:12:23.830Z,2.23
2022-11-12T13:15:12.223Z,2.77
2022-11-12T13:17:51.689Z,2.90
2022-11-12T13:20:41.509Z,2.80
2022-11-12T13:24:02.985Z,2.70
2022-11-12T13:26:54.266Z,3.00
2022-11-12T13:29:41.400Z,3.57
2022-11-12T13:32:33.941Z,2.53
2022-11-12T13:35:31.799Z,2.50
2022-11-12T13:38:04.525Z,2.20
2022-11-12T13:40:41.397Z,2.70
2022-11-12T13:43:27.783Z,3.00
2022-11-12T13:46:00.391Z,3.17
2022-11-12T13:48:30.161Z,3.50
2022-11-12T13:51:03.735Z,5.33
2022-11-12T13:53:32.700Z,3.33
2022-11-12T13:56:00.894Z,2.30
2022-11-12T13:58:30.185Z,2.97
2022-11-12T14:00:58.881Z,3.83
2022-11-12T14:03:28.561Z,3.30
2022-11-12T14:05:56.644Z,3.97
2022-11-12T14:08:51.423Z,3.10
2022-11-12T14:11:39.289Z,3.50
2022-11-12T14:14:12.256Z,2.57
2022-11-12T14:16:46.195Z,4.10
2022-11-12T14:19:32.993Z,2.53
2022-11-12T14:22:02.349Z,2.70
2022-11-12T14:24:33.359Z,2.50
2022-11-12T14:27:01.507Z,2.97
2022-11-12T14:29:34.302Z,2.83
2022-11-12T14:32:04.321Z,2.60
2022-11-12T14:34:33.396Z,3.00
2022-11-12T14:37:01.566Z,2.97
2022-11-12T14:39:31.580Z,2.30
2022-11-12T14:41:59.870Z,2.70
2022-11-12T14:44:30.015Z,3.77
2022-11-12T14:46:58.880Z,2.50
2022-11-12T14:49:33.817Z,2.83
2022-11-12T14:52:06.887Z,3.77
2022-11-12T14:54:37.523Z,2.97
2022-11-12T14:57:05.606Z,2.90
2022-11-12T14:59:33.716Z,2.73
2022-11-12T15:02:31.374Z,2.70
2022-11-12T15:04:59.902Z,2.97
2022-11-12T15:07:28.943Z,3.00
2022-11-12T15:09:58.494Z,3.07
2022-11-12T15:12:27.136Z,2.73
2022-11-12T15:14:55.543Z,2.87
2022-11-12T15:17:30.224Z,3.07
2022-11-12T15:20:02.832Z,4.57
2022-11-12T15:22:31.042Z,2.97
2022-11-12T15:25:11.072Z,4.63
2022-11-12T15:27:40.284Z,3.63
2022-11-12T15:30:17.349Z,6.40
2022-11-12T15:32:45.640Z,3.60
2022-11-12T15:35:38.424Z,4.37
2022-11-12T15:38:08.937Z,2.73
2022-11-12T15:40:47.745Z,3.10
2022-11-12T15:43:17.364Z,3.50
2022-11-12T15:45:47.557Z,2.70
2022-11-12T15:48:15.644Z,5.03
2022-11-12T15:50:43.766Z,4.00
2022-11-12T15:53:11.864Z,4.63
2022-11-12T15:55:40.019Z,2.90
2022-11-12T15:58:13.775Z,3.50
2022-11-12T16:00:42.023Z,3.07
2022-11-12T16:03:15.237Z,3.13
2022-11-12T16:05:43.477Z,3.10
2022-11-12T16:08:11.750Z,3.50
2022-11-12T16:10:40.278Z,2.90
2022-11-12T16:13:14.938Z,3.53
2022-11-12T16:15:43.043Z,2.93
2022-11-12T16:18:11.881Z,2.80
2022-11-12T16:20:40.054Z,3.90
2022-11-12T16:23:08.196Z,3.07
2022-11-12T16:25:37.267Z,3.50
2022-11-12T16:28:05.978Z,3.30
2022-11-12T16:30:50.973Z,5.07
2022-11-12T16:33:19.053Z,3.20
2022-11-12T16:35:47.080Z,5.03
2022-11-12T16:38:16.621Z,3.80
2022-11-12T16:40:45.061Z,3.10
2022-11-12T16:43:13.164Z,3.40
2022-11-12T16:45:42.280Z,3.23
2022-11-12T16:48:15.412Z,3.43
2022-11-12T16:50:43.484Z,3.60
2022-11-12T16:53:11.604Z,3.60
2022-11-12T16:55:39.691Z,4.00
2022-11-12T16:58:07.791Z,6.00
2022-11-12T17:00:35.876Z,4.40
2022-11-12T17:03:13.955Z,3.63
2022-11-12T17:05:42.026Z,4.63
2022-11-12T17:08:10.452Z,5.10
2022-11-12T17:10:38.640Z,4.93
2022-11-12T17:13:06.753Z,6.80
2022-11-12T17:15:34.831Z,4.67
2022-11-12T17:18:03.375Z,5.53
2022-11-12T17:20:33.035Z,4.60
2022-11-12T17:23:01.227Z,4.70
2022-11-12T17:25:29.332Z,4.93
2022-11-12T17:27:57.501Z,3.73
2022-11-12T17:30:25.584Z,4.23
2022-11-12T17:32:53.660Z,4.23
2022-11-12T17:35:34.232Z,7.37
2022-11-12T17:38:03.782Z,4.57
2022-11-12T17:40:31.824Z,4.27
2022-11-12T17:42:59.957Z,4.30
2022-11-12T17:45:28.032Z,5.33
2022-11-12T17:47:56.223Z,4.00
2022-11-12T17:50:24.364Z,6.77
2022-11-12T17:52:52.514Z,4.53
2022-11-12T17:55:21.979Z,4.40
2022-11-12T17:57:50.297Z,5.63
2022-11-12T18:00:19.403Z,5.40
2022-11-12T18:02:47.474Z,4.50
2022-11-12T18:05:15.694Z,5.63
2022-11-12T18:07:43.785Z,5.77
2022-11-12T18:10:14.489Z,4.50
2022-11-12T18:12:46.502Z,5.43
2022-11-12T18:15:14.630Z,4.77
2022-11-12T18:17:42.688Z,4.67
2022-11-12T18:20:11.269Z,4.90
2022-11-12T18:22:43.726Z,4.63
2022-11-12T18:25:13.573Z,6.00
2022-11-12T18:27:41.676Z,6.43
2022-11-12T18:30:17.930Z,6.03
2022-11-12T18:32:47.291Z,5.30
2022-11-12T18:35:15.473Z,5.10
2022-11-12T18:37:43.649Z,5.20
2022-11-12T18:40:12.445Z,5.47
2022-11-12T18:42:40.524Z,4.47
2022-11-12T18:45:11.460Z,4.80
2022-11-12T18:47:39.616Z,5.90
2022-11-12T18:50:08.997Z,5.97
2022-11-12T18:52:37.341Z,5.47
2022-11-12T18:55:06.270Z,6.87
2022-11-12T18:57:37.445Z,5.53
2022-11-12T19:00:06.567Z,7.40
2022-11-12T19:02:36.050Z,7.23
2022-11-12T19:05:04.262Z,6.93
2022-11-12T19:07:32.455Z,5.30
2022-11-12T19:10:01.472Z,6.97
2022-11-12T19:12:29.628Z,5.37
2022-11-12T19:14:57.788Z,6.83
2022-11-12T19:17:30.533Z,6.70
2022-11-12T19:20:00.608Z,5.83
2022-11-12T19:22:28.691Z,6.20
2022-11-12T19:24:56.865Z,7.17
2022-11-12T19:27:24.999Z,8.77
2022-11-12T19:29:58.515Z,6.20
2022-11-12T19:32:30.709Z,6.20
2022-11-12T19:35:00.200Z,5.90
2022-11-12T19:37:33.463Z,6.10
2022-11-12T19:40:02.158Z,5.80
2022-11-12T19:42:30.242Z,6.40
2022-11-12T19:44:58.292Z,6.10
2022-11-12T19:47:26.390Z,6.40
2022-11-12T19:49:54.464Z,6.23
2022-11-12T19:52:23.970Z,6.00
2022-11-12T19:54:52.057Z,6.33
2022-11-12T19:57:20.297Z,6.07
2022-11-12T19:59:48.386Z,6.33
2022-11-12T20:02:16.612Z,7.20
2022-11-12T20:04:44.724Z,10.20
2022-11-12T20:07:12.844Z,7.30
2022-11-12T20:09:42.618Z,5.30
2022-11-12T20:12:10.672Z,5.67
2022-11-12T20:14:38.773Z,6.17
2022-11-12T20:17:07.127Z,6.90
2022-11-12T20:19:35.258Z,5.43
2022-11-12T20:22:03.330Z,7.50
2022-11-12T20:24:31.453Z,7.23
2022-11-12T20:27:00.949Z,6.63
2022-11-12T20:29:29.036Z,7.17
2022-11-12T20:31:57.138Z,7.23
2022-11-12T20:34:26.656Z,6.63
2022-11-12T20:36:55.669Z,6.13
2022-11-12T20:39:23.829Z,6.40
2022-11-12T20:41:51.915Z,6.10
2022-11-12T20:44:21.453Z,7.50
2022-11-12T20:46:49.617Z,6.93
2022-11-12T20:49:17.823Z,6.40
2022-11-12T20:51:45.958Z,6.27
2022-11-12T20:54:14.359Z,7.80
2022-11-12T20:56:42.522Z,6.50
2022-11-12T20:59:10.983Z,6.30
2022-11-12T21:01:40.628Z,6.00
2022-11-12T21:04:09.953Z,6.03
2022-11-12T21:06:38.167Z,6.33
2022-11-12T21:09:06.752Z,7.27
2022-11-12T21:11:34.901Z,6.97
2022-11-12T21:14:03.001Z,9.07
2022-11-12T21:16:31.113Z,6.80
2022-11-12T21:19:02.620Z,8.00
2022-11-12T21:21:31.671Z,5.50
2022-11-12T21:24:04.572Z,6.80
2022-11-12T21:26:33.116Z,8.30
2022-11-12T21:29:01.439Z,7.67
2022-11-12T21:31:30.840Z,6.03
2022-11-12T21:34:00.353Z,6.27
2022-11-12T21:36:29.826Z,5.67
2022-11-12T21:38:57.938Z,6.27
2022-11-12T21:41:28.883Z,7.50
2022-11-12T21:43:57.022Z,8.10
2022-11-12T21:46:25.966Z,5.83
2022-11-12T21:48:55.327Z,7.50
2022-11-12T21:51:24.315Z,6.83
2022-11-12T21:53:55.921Z,6.70
2022-11-12T21:56:23.997Z,6.57
2022-11-12T21:58:53.038Z,8.23
2022-11-12T22:01:22.094Z,6.63
2022-11-12T22:03:50.866Z,6.60
2022-11-12T22:06:19.006Z,7.37
2022-11-12T22:08:47.154Z,5.73
2022-11-12T22:11:17.666Z,6.67
2022-11-12T22:13:45.752Z,6.47
2022-11-12T22:16:14.915Z,7.37
2022-11-12T22:18:43.003Z,6.67
2022-11-12T22:21:12.308Z,6.37
2022-11-12T22:23:40.477Z,6.33
2022-11-12T22:26:10.422Z,6.90
2022-11-12T22:28:39.965Z,7.20
2022-11-12T22:31:09.592Z,6.23
2022-11-12T22:33:37.745Z,6.87
2022-11-12T22:36:07.099Z,6.90
2022-11-12T22:38:35.960Z,7.60
2022-11-12T22:41:05.168Z,6.77
2022-11-12T22:43:33.827Z,6.47
2022-11-12T22:46:07.238Z,7.33
2022-11-12T22:48:35.896Z,6.53
2022-11-12T22:51:04.792Z,5.93
2022-11-12T22:53:33.070Z,8.53
2022-11-12T22:56:04.339Z,7.33
2022-11-12T22:58:32.469Z,6.00
2022-11-12T23:01:00.587Z,7.17
2022-11-12T23:03:31.193Z,6.33
2022-11-12T23:05:59.514Z,8.00
2022-11-12T23:08:28.792Z,8.00
2022-11-12T23:10:57.053Z,6.20
2022-11-12T23:13:25.955Z,7.83
2022-11-12T23:15:54.191Z,6.00
2022-11-12T23:18:22.307Z,6.23
2022-11-12T23:20:52.007Z,6.80
2022-11-12T23:23:20.127Z,6.37
2022-11-12T23:25:48.256Z,6.43
2022-11-12T23:28:16.378Z,7.27
2022-11-12T23:30:44.510Z,8.43
2022-11-12T23:33:12.634Z,6.90
2022-11-12T23:35:40.735Z,6.00
2022-11-12T23:38:10.230Z,7.33
2022-11-12T23:40:38.343Z,6.50
2022-11-12T23:43:06.471Z,6.10
2022-11-12T23:45:37.267Z,7.70
2022-11-12T23:48:05.965Z,6.10
2022-11-12T23:50:34.089Z,6.60
2022-11-12T23:53:02.200Z,9.00
2022-11-12T23:55:36.134Z,8.47
2022-11-12T23:58:06.464Z,6.43
